createdAt,value
2023-06-29T00:00:32.761Z,100383.75
2023-06-29T00:03:35.419Z,100352.31
2023-06-29T00:06:38.422Z,100365.94
2023-06-29T00:09:40.900Z,100364.78
2023-06-29T00:12:43.286Z,100368.69
2023-06-29T00:15:46.332Z,100376.44
2023-06-29T00:18:50.748Z,100372.16
2023-06-29T00:21:54.001Z,100370.44
2023-06-29T00:24:57.317Z,100375.53
2023-06-29T00:28:00.190Z,100380.41
2023-06-29T00:31:02.913Z,100384.69
2023-06-29T00:34:05.398Z,100384.22
2023-06-29T00:37:08.977Z,100385.88
2023-06-29T00:40:12.394Z,100390.16
2023-06-29T00:43:15.012Z,100366.47
2023-06-29T00:46:21.429Z,100364.63
2023-06-29T00:49:24.127Z,100368.44
2023-06-29T00:52:28.086Z,100363.19
2023-06-29T00:55:31.101Z,100380.94
2023-06-29T00:58:34.462Z,100352.06
2023-06-29T01:01:39.193Z,100359.06
2023-06-29T01:04:42.744Z,100356.91
2023-06-29T01:07:52.996Z,100373.81
2023-06-29T01:10:56.503Z,100360.16
2023-06-29T01:14:02.173Z,100365.88
2023-06-29T01:17:05.497Z,100354.47
2023-06-29T01:20:12.984Z,100363.75
2023-06-29T01:23:22.517Z,100367.06
2023-06-29T01:26:25.018Z,100366.25
2023-06-29T01:29:27.732Z,100363.63
2023-06-29T01:32:35.349Z,100367.00
2023-06-29T01:35:38.441Z,100358.63
2023-06-29T01:38:48.962Z,100346.66
2023-06-29T01:41:53.564Z,100344.56
2023-06-29T01:44:57.400Z,100332.81
2023-06-29T01:48:01.625Z,100346.50
2023-06-29T01:51:04.962Z,100340.63
2023-06-29T01:54:07.398Z,100338.00
2023-06-29T01:57:10.243Z,100350.16
2023-06-29T02:00:13.656Z,100352.25
2023-06-29T02:03:19.189Z,100369.66
2023-06-29T02:06:21.740Z,100329.78
2023-06-29T02:09:24.337Z,100364.91
2023-06-29T02:12:26.870Z,100363.91
2023-06-29T02:15:29.336Z,100364.28
2023-06-29T02:18:38.790Z,100360.09
2023-06-29T02:21:42.854Z,100356.34
2023-06-29T02:24:46.897Z,100358.56
2023-06-29T02:27:49.435Z,100366.13
2023-06-29T02:30:51.998Z,100345.72
2023-06-29T02:33:55.007Z,100350.25
2023-06-29T02:36:58.198Z,100352.41
2023-06-29T02:40:02.159Z,100343.75
2023-06-29T02:43:04.715Z,100338.88
2023-06-29T02:46:07.792Z,100366.88
2023-06-29T02:49:13.575Z,100356.53
2023-06-29T02:52:16.972Z,100350.19
2023-06-29T02:55:23.405Z,100356.84
2023-06-29T02:58:25.908Z,100360.44
2023-06-29T03:01:29.089Z,100354.84
2023-06-29T03:04:32.950Z,100345.53
2023-06-29T03:07:36.673Z,100370.34
2023-06-29T03:10:39.247Z,100355.41
2023-06-29T03:13:41.793Z,100363.56
2023-06-29T03:16:44.248Z,100356.34
2023-06-29T03:19:48.647Z,100368.25
2023-06-29T03:22:51.102Z,100342.69
2023-06-29T03:25:53.584Z,100334.50
2023-06-29T03:28:56.050Z,100348.56
2023-06-29T03:32:00.863Z,100354.47
2023-06-29T03:35:04.949Z,100362.16
2023-06-29T03:38:09.597Z,100347.34
2023-06-29T03:41:12.001Z,100353.16
2023-06-29T03:44:14.453Z,100351.91
2023-06-29T03:47:16.908Z,100356.03
2023-06-29T03:50:19.428Z,100364.88
2023-06-29T03:53:21.968Z,100356.50
2023-06-29T03:56:24.424Z,100367.13
2023-06-29T03:59:26.925Z,100358.22
2023-06-29T04:02:29.594Z,100353.91
2023-06-29T04:05:32.500Z,100356.09
2023-06-29T04:08:35.045Z,100364.03
2023-06-29T04:11:37.502Z,100366.31
2023-06-29T04:14:39.991Z,100372.81
2023-06-29T04:17:42.952Z,100347.84
2023-06-29T04:20:45.491Z,100372.47
2023-06-29T04:23:48.006Z,100351.66
2023-06-29T04:26:50.780Z,100371.81
2023-06-29T04:29:53.305Z,100365.19
2023-06-29T04:32:57.470Z,100346.28
2023-06-29T04:35:59.968Z,100350.91
2023-06-29T04:39:02.356Z,100359.06
2023-06-29T04:42:06.305Z,100363.63
2023-06-29T04:45:09.318Z,100371.09
2023-06-29T04:48:11.799Z,100361.75
2023-06-29T04:51:14.543Z,100355.53
2023-06-29T04:54:17.071Z,100350.22
2023-06-29T04:57:19.545Z,100356.41
2023-06-29T05:00:22.062Z,100356.75
2023-06-29T05:03:25.860Z,100358.09
2023-06-29T05:06:28.648Z,100372.22
2023-06-29T05:09:31.113Z,100354.59
2023-06-29T05:12:33.578Z,100367.69
2023-06-29T05:15:36.055Z,100374.09
2023-06-29T05:18:38.555Z,100373.16
2023-06-29T05:21:41.293Z,100353.44
2023-06-29T05:24:43.882Z,100371.38
2023-06-29T05:27:46.688Z,100361.41
2023-06-29T05:30:49.274Z,100346.94
2023-06-29T05:33:51.784Z,100373.69
2023-06-29T05:36:54.560Z,100377.13
2023-06-29T05:39:58.078Z,100362.72
2023-06-29T05:43:00.941Z,100379.06
2023-06-29T05:46:04.049Z,100355.34
2023-06-29T05:49:06.892Z,100372.75
2023-06-29T05:52:09.318Z,100369.84
2023-06-29T05:55:11.795Z,100383.59
2023-06-29T05:58:14.870Z,100345.09
2023-06-29T06:01:17.422Z,100362.53
2023-06-29T06:04:20.175Z,100373.66
2023-06-29T06:07:33.421Z,100361.56
2023-06-29T06:10:37.149Z,100392.34
2023-06-29T06:13:40.078Z,100360.41
2023-06-29T06:16:42.686Z,100381.00
2023-06-29T06:19:45.651Z,100382.41
2023-06-29T06:22:48.166Z,100391.38
2023-06-29T06:25:51.255Z,100383.44
2023-06-29T06:28:53.651Z,100384.75
2023-06-29T06:31:56.730Z,100383.69
2023-06-29T06:34:59.291Z,100385.50
2023-06-29T06:38:02.996Z,100371.97
2023-06-29T06:41:05.553Z,100375.84
2023-06-29T06:44:08.259Z,100380.72
2023-06-29T06:47:10.745Z,100387.38
2023-06-29T06:50:14.071Z,100401.50
2023-06-29T06:53:17.885Z,100378.72
2023-06-29T06:56:22.876Z,100377.16
2023-06-29T06:59:25.706Z,100385.91
2023-06-29T07:02:28.213Z,100373.59
2023-06-29T07:05:31.121Z,100386.97
2023-06-29T07:08:34.776Z,100385.16
2023-06-29T07:11:38.755Z,100386.88
2023-06-29T07:14:41.368Z,100391.28
2023-06-29T07:17:44.166Z,100393.44
2023-06-29T07:26:58.051Z,100394.66
2023-06-29T07:30:00.511Z,100380.19
2023-06-29T07:33:03.076Z,100384.63
2023-06-29T07:36:06.251Z,100393.38
2023-06-29T07:39:08.823Z,100392.88
2023-06-29T07:42:11.303Z,100394.69
2023-06-29T07:45:14.786Z,100397.94
2023-06-29T07:48:18.416Z,100404.00
2023-06-29T07:51:22.897Z,100396.78
2023-06-29T07:54:25.397Z,100393.97
2023-06-29T08:00:33.242Z,100377.63
2023-06-29T08:03:47.338Z,100374.09
2023-06-29T08:06:58.287Z,100364.78
2023-06-29T08:10:00.909Z,100361.84
2023-06-29T08:13:05.933Z,100364.78
2023-06-29T08:16:08.846Z,100375.75
2023-06-29T08:19:11.807Z,100385.59
2023-06-29T08:22:14.482Z,100390.00
2023-06-29T08:25:17.601Z,100368.59
2023-06-29T08:28:20.096Z,100386.41
2023-06-29T08:31:22.510Z,100371.09
2023-06-29T08:34:25.412Z,100368.06
2023-06-29T08:37:29.506Z,100384.91
2023-06-29T08:40:35.417Z,100387.91
2023-06-29T08:43:37.944Z,100388.50
2023-06-29T08:46:43.011Z,100388.81
2023-06-29T08:49:47.208Z,100394.16
2023-06-29T08:52:50.310Z,100380.19
2023-06-29T08:55:54.165Z,100381.69
2023-06-29T08:58:57.438Z,100375.56
2023-06-29T09:02:00.208Z,100391.22
2023-06-29T09:05:04.035Z,100380.19
2023-06-29T09:08:06.805Z,100379.13
2023-06-29T09:11:09.399Z,100376.25
2023-06-29T09:14:11.977Z,100370.31
2023-06-29T09:17:19.059Z,100378.94
2023-06-29T09:20:22.676Z,100389.91
2023-06-29T09:23:30.008Z,100385.19
2023-06-29T09:26:32.893Z,100393.22
2023-06-29T09:29:40.107Z,100373.97
2023-06-29T09:32:42.869Z,100390.44
2023-06-29T09:35:51.576Z,100387.69
2023-06-29T09:38:55.594Z,100392.03
2023-06-29T09:41:58.159Z,100388.44
2023-06-29T09:45:02.480Z,100389.59
2023-06-29T09:51:10.741Z,100379.69
2023-06-29T09:54:14.870Z,100393.66
2023-06-29T09:57:19.631Z,100393.66
2023-06-29T10:00:22.386Z,100383.84
2023-06-29T10:03:27.950Z,100384.31
2023-06-29T10:06:39.548Z,100369.03
2023-06-29T10:09:46.771Z,100387.84
2023-06-29T10:12:54.708Z,100375.53
2023-06-29T10:16:01.236Z,100371.28
2023-06-29T10:19:21.684Z,100361.06
2023-06-29T10:22:27.091Z,100383.25
2023-06-29T10:25:31.604Z,100381.63
2023-06-29T10:28:35.659Z,100377.72
2023-06-29T10:31:38.958Z,100372.72
2023-06-29T10:35:01.360Z,100377.88
2023-06-29T10:38:12.514Z,100368.59
2023-06-29T10:41:29.133Z,100371.38
2023-06-29T10:44:35.202Z,100369.25
2023-06-29T10:47:41.065Z,100367.97
2023-06-29T10:50:48.400Z,100375.38
2023-06-29T10:53:50.998Z,100381.13
2023-06-29T10:57:03.730Z,100388.72
2023-06-29T11:00:06.803Z,100350.59
2023-06-29T11:03:11.585Z,100361.56
2023-06-29T11:06:23.964Z,100366.44
2023-06-29T11:09:31.752Z,100370.44
2023-06-29T11:12:34.374Z,100375.28
2023-06-29T11:15:37.863Z,100360.88
2023-06-29T11:18:48.736Z,100360.66
2023-06-29T11:21:55.158Z,100356.66
2023-06-29T11:24:57.623Z,100345.06
2023-06-29T11:28:00.360Z,100351.41
2023-06-29T11:31:03.589Z,100356.81
2023-06-29T11:34:06.180Z,100343.41
2023-06-29T11:37:15.828Z,100330.63
2023-06-29T11:40:23.108Z,100343.28
2023-06-29T11:46:33.470Z,100333.19
2023-06-29T11:49:36.026Z,100341.63
2023-06-29T11:52:40.858Z,100339.47
2023-06-29T11:55:54.669Z,100339.31
2023-06-29T11:58:57.254Z,100309.09
2023-06-29T12:02:00.810Z,100338.19
2023-06-29T12:05:05.522Z,100326.75
2023-06-29T12:08:10.387Z,100323.84
2023-06-29T12:11:16.889Z,100315.22
2023-06-29T12:14:19.576Z,100305.03
2023-06-29T12:20:29.530Z,100301.13
2023-06-29T12:23:32.063Z,100295.22
2023-06-29T12:26:34.565Z,100299.56
2023-06-29T12:29:38.352Z,100289.25
2023-06-29T12:32:46.369Z,100303.34
2023-06-29T12:35:49.240Z,100302.69
2023-06-29T12:38:52.450Z,100303.34
2023-06-29T12:41:56.652Z,100282.38
2023-06-29T12:45:00.037Z,100294.31
2023-06-29T12:48:04.766Z,100292.81
2023-06-29T12:51:07.838Z,100283.31
2023-06-29T12:54:10.898Z,100288.47
2023-06-29T12:57:16.217Z,100283.44
2023-06-29T13:00:23.091Z,100278.31
2023-06-29T13:03:25.702Z,100280.53
2023-06-29T13:06:28.292Z,100276.66
2023-06-29T13:09:31.465Z,100279.56
2023-06-29T13:12:34.010Z,100277.00
2023-06-29T13:15:36.553Z,100269.69
2023-06-29T13:18:39.147Z,100259.56
2023-06-29T13:21:41.806Z,100261.47
2023-06-29T13:24:44.657Z,100263.28
2023-06-29T13:27:49.310Z,100260.56
2023-06-29T13:30:51.792Z,100241.41
2023-06-29T13:33:55.324Z,100253.88
2023-06-29T13:36:57.968Z,100259.63
2023-06-29T13:40:00.660Z,100278.47
2023-06-29T13:43:03.398Z,100262.56
2023-06-29T13:46:05.854Z,100258.53
2023-06-29T13:49:09.189Z,100247.16
2023-06-29T13:52:11.943Z,100242.84
2023-06-29T13:55:14.421Z,100237.03
2023-06-29T13:58:16.967Z,100249.13
2023-06-29T14:01:19.700Z,100247.78
2023-06-29T14:04:23.282Z,100244.75
2023-06-29T14:07:27.122Z,100230.09
2023-06-29T14:10:29.652Z,100230.81
2023-06-29T14:13:33.026Z,100233.50
2023-06-29T14:16:36.418Z,100232.91
2023-06-29T14:19:39.126Z,100227.47
2023-06-29T14:22:41.584Z,100244.38
2023-06-29T14:25:44.448Z,100223.31
2023-06-29T14:28:47.110Z,100224.78
2023-06-29T14:31:49.645Z,100215.59
2023-06-29T14:34:52.411Z,100235.00
2023-06-29T14:38:13.502Z,100208.19
2023-06-29T14:41:17.095Z,100204.66
2023-06-29T14:44:19.868Z,100212.84
2023-06-29T14:47:22.312Z,100212.06
2023-06-29T14:50:24.774Z,100217.00
2023-06-29T14:53:27.281Z,100201.47
2023-06-29T14:56:29.972Z,100201.56
2023-06-29T14:59:32.529Z,100208.50
2023-06-29T15:02:35.113Z,100211.41
2023-06-29T15:05:37.614Z,100203.56
2023-06-29T15:08:40.469Z,100196.28
2023-06-29T15:11:42.980Z,100195.41
2023-06-29T15:14:45.476Z,100199.19
2023-06-29T15:17:48.980Z,100200.94
2023-06-29T15:20:51.595Z,100194.28
2023-06-29T15:23:54.063Z,100196.25
2023-06-29T15:26:56.495Z,100182.88
2023-06-29T15:30:02.633Z,100183.63
2023-06-29T15:33:05.493Z,100183.84
2023-06-29T15:36:08.533Z,100185.03
2023-06-29T15:39:10.996Z,100182.97
2023-06-29T15:42:14.168Z,100178.19
2023-06-29T15:45:16.715Z,100170.72
2023-06-29T15:48:19.329Z,100169.34
2023-06-29T15:51:22.735Z,100176.81
2023-06-29T15:54:25.236Z,100171.13
2023-06-29T15:57:27.922Z,100173.97
2023-06-29T16:00:30.950Z,100162.16
2023-06-29T16:03:33.699Z,100161.94
2023-06-29T16:06:36.381Z,100161.34
2023-06-29T16:09:38.868Z,100162.41
2023-06-29T16:12:41.304Z,100164.47
2023-06-29T16:15:43.907Z,100156.75
2023-06-29T16:18:46.781Z,100145.78
2023-06-29T16:21:49.619Z,100154.25
2023-06-29T16:24:52.167Z,100141.50
2023-06-29T16:27:54.674Z,100128.69
2023-06-29T16:30:57.249Z,100139.56
2023-06-29T16:33:59.779Z,100147.66
2023-06-29T16:37:02.467Z,100148.91
2023-06-29T16:40:05.614Z,100138.47
2023-06-29T16:43:08.157Z,100150.47
2023-06-29T16:46:10.650Z,100137.22
2023-06-29T16:49:13.102Z,100149.38
2023-06-29T16:52:16.296Z,100137.34
2023-06-29T16:55:18.797Z,100144.66
2023-06-29T16:58:21.686Z,100148.16
2023-06-29T17:01:24.834Z,100143.03
2023-06-29T17:04:27.455Z,100135.25
2023-06-29T17:07:30.331Z,100145.00
2023-06-29T17:10:32.833Z,100144.38
2023-06-29T17:13:35.583Z,100144.69
2023-06-29T17:16:38.213Z,100125.47
2023-06-29T17:19:40.919Z,100123.56
2023-06-29T17:22:43.422Z,100137.88
2023-06-29T17:25:51.061Z,100125.13
2023-06-29T17:28:53.741Z,100141.38
2023-06-29T17:31:56.287Z,100148.47
2023-06-29T17:34:58.969Z,100143.41
2023-06-29T17:38:01.458Z,100129.28
2023-06-29T17:41:04.125Z,100128.97
2023-06-29T17:44:06.712Z,100136.59
2023-06-29T17:47:09.605Z,100134.72
2023-06-29T17:50:12.172Z,100128.41
2023-06-29T17:53:14.639Z,100135.19
2023-06-29T17:56:17.167Z,100120.91
2023-06-29T17:59:19.671Z,100138.00
2023-06-29T18:02:22.478Z,100136.41
2023-06-29T18:05:26.441Z,100138.28
2023-06-29T18:08:28.923Z,100137.25
2023-06-29T18:11:31.432Z,100131.00
2023-06-29T18:14:33.935Z,100147.16
2023-06-29T18:17:36.490Z,100148.72
2023-06-29T18:20:39.019Z,100146.94
2023-06-29T18:23:41.601Z,100134.16
2023-06-29T18:26:44.184Z,100128.97
2023-06-29T18:29:46.925Z,100132.47
2023-06-29T18:32:49.465Z,100151.00
2023-06-29T18:35:52.114Z,100153.31
2023-06-29T18:38:54.648Z,100162.44
2023-06-29T18:41:57.226Z,100149.41
2023-06-29T18:44:59.749Z,100159.09
2023-06-29T18:48:02.465Z,100158.13
2023-06-29T18:51:04.967Z,100160.38
2023-06-29T18:54:07.452Z,100153.22
2023-06-29T18:57:11.548Z,100163.66
2023-06-29T19:00:14.434Z,100150.47
2023-06-29T19:03:17.082Z,100165.94
2023-06-29T19:06:19.664Z,100170.47
2023-06-29T19:09:22.671Z,100164.19
2023-06-29T19:12:25.229Z,100171.84
2023-06-29T19:15:27.729Z,100172.78
2023-06-29T19:18:30.499Z,100166.09
2023-06-29T19:21:46.984Z,100170.81
2023-06-29T19:24:51.340Z,100162.31
2023-06-29T19:27:53.873Z,100172.84
2023-06-29T19:30:56.358Z,100177.84
2023-06-29T19:34:00.422Z,100178.44
2023-06-29T19:37:04.397Z,100184.22
2023-06-29T19:40:07.849Z,100171.66
2023-06-29T19:43:10.552Z,100169.28
2023-06-29T19:46:13.128Z,100157.69
2023-06-29T19:49:15.908Z,100188.00
2023-06-29T19:52:19.934Z,100180.03
2023-06-29T19:55:22.465Z,100196.66
2023-06-29T19:58:25.634Z,100188.31
2023-06-29T20:01:28.086Z,100195.28
2023-06-29T20:04:30.732Z,100184.00
2023-06-29T20:07:33.358Z,100189.34
2023-06-29T20:10:35.913Z,100192.84
2023-06-29T20:13:38.473Z,100184.91
2023-06-29T20:16:41.048Z,100201.81
2023-06-29T20:19:44.153Z,100198.25
2023-06-29T20:22:46.726Z,100198.81
2023-06-29T20:25:49.559Z,100189.03
2023-06-29T20:28:52.634Z,100205.88
2023-06-29T20:31:55.389Z,100204.91
2023-06-29T20:34:57.923Z,100190.97
2023-06-29T20:38:00.399Z,100190.25
2023-06-29T20:41:02.920Z,100195.03
2023-06-29T20:44:06.898Z,100203.34
2023-06-29T20:47:09.336Z,100195.69
2023-06-29T20:50:11.897Z,100208.97
2023-06-29T20:53:15.360Z,100200.56
2023-06-29T20:56:17.858Z,100190.41
2023-06-29T20:59:20.505Z,100212.59
2023-06-29T21:02:24.395Z,100207.03
2023-06-29T21:05:27.454Z,100185.50
2023-06-29T21:08:30.573Z,100196.44
2023-06-29T21:11:33.291Z,100201.72
2023-06-29T21:14:36.187Z,100200.47
2023-06-29T21:17:39.069Z,100217.91
2023-06-29T21:20:42.177Z,100216.91
2023-06-29T21:23:45.045Z,100210.59
2023-06-29T21:26:48.933Z,100199.06
2023-06-29T21:29:51.559Z,100205.69
2023-06-29T21:32:54.300Z,100201.22
2023-06-29T21:35:57.366Z,100196.75
2023-06-29T21:39:02.368Z,100208.66
2023-06-29T21:42:05.426Z,100199.19
2023-06-29T21:45:08.508Z,100216.88
2023-06-29T21:48:11.164Z,100217.69
2023-06-29T21:51:13.709Z,100214.56
2023-06-29T21:54:16.253Z,100216.41
2023-06-29T21:57:18.776Z,100203.22
2023-06-29T22:00:21.290Z,100214.28
2023-06-29T22:03:23.851Z,100219.56
2023-06-29T22:06:29.428Z,100215.38
2023-06-29T22:09:32.693Z,100225.13
2023-06-29T22:12:43.164Z,100223.56
2023-06-29T22:15:46.761Z,100212.22
2023-06-29T22:18:52.669Z,100231.72
2023-06-29T22:22:00.952Z,100218.28
2023-06-29T22:25:03.515Z,100227.53
2023-06-29T22:28:08.046Z,100206.94
2023-06-29T22:31:11.126Z,100229.06
2023-06-29T22:34:15.070Z,100228.28
2023-06-29T22:37:17.634Z,100237.50
2023-06-29T22:40:20.459Z,100237.19
2023-06-29T22:43:22.883Z,100235.59
2023-06-29T22:46:26.606Z,100218.72
2023-06-29T22:49:29.171Z,100227.66
2023-06-29T22:52:31.701Z,100211.28
2023-06-29T22:55:34.664Z,100240.03
2023-06-29T22:58:37.579Z,100240.00
2023-06-29T23:01:40.775Z,100230.19
2023-06-29T23:04:44.297Z,100224.66
2023-06-29T23:07:47.730Z,100230.97
2023-06-29T23:10:50.402Z,100220.38
2023-06-29T23:13:56.980Z,100213.25
2023-06-29T23:17:03.948Z,100215.88
2023-06-29T23:20:12.176Z,100218.44
2023-06-29T23:23:15.045Z,100231.09
2023-06-29T23:26:20.382Z,100193.06
2023-06-29T23:29:22.902Z,100224.16
2023-06-29T23:32:25.396Z,100225.75
2023-06-29T23:35:27.883Z,100213.03
2023-06-29T23:38:30.300Z,100222.53
2023-06-29T23:41:34.879Z,100229.88
2023-06-29T23:44:41.862Z,100222.22
2023-06-29T23:47:44.597Z,100197.63
2023-06-29T23:50:48.491Z,100220.81
2023-06-29T23:53:50.957Z,100223.41
2023-06-29T23:56:53.570Z,100218.13
2023-06-29T23:59:56.135Z,100218.66
